Barretos, Brazil
Current Conditions -  °F | °C
As of 5:00 PM on Thursday 30 Oct 2014 (Local Time) from SBCF Reporting Station
Broken Clouds Broken Clouds  
Wind Chill: 73°   Ceiling: 10000
Heat Index: 73°   Visibility: 6mi
Dew Point: 66°   Wind: 7mph
Humidity: 78%   Direction: 80°E
Pressure: 29.97"   Gusts: NA
Location:  20.28°S, 43.17°W
Report Text: SBCF 301900Z 08006KT 9999 SCT030 BKN100 23/19 Q1015
Loading
Personal Weather Stations






























Interactive Weather Map
Tropical Storm Tracking
New forecast layout! Learn more

10-Day Weather Forecast

Advertisements
Track Severe Weather on mobile